createdAt,value
2019-03-18T00:01:25.889Z,6.48
2019-03-18T00:06:33.410Z,6.49
2019-03-18T00:11:40.341Z,6.61
2019-03-18T00:16:47.803Z,6.65
2019-03-18T00:21:54.437Z,6.75
2019-03-18T00:27:03.191Z,6.61
2019-03-18T00:32:09.711Z,6.61
2019-03-18T00:37:16.096Z,6.63
2019-03-18T00:42:22.489Z,6.42
2019-03-18T00:47:31.766Z,6.44
2019-03-18T00:52:38.098Z,6.40
2019-03-18T00:57:45.049Z,6.23
2019-03-18T01:02:51.854Z,6.36
2019-03-18T01:08:02.537Z,6.12
2019-03-18T01:13:12.603Z,6.41
2019-03-18T01:18:22.985Z,6.08
2019-03-18T01:23:29.096Z,6.11
2019-03-18T01:28:38.861Z,6.06
2019-03-18T01:33:46.110Z,6.04
2019-03-18T01:38:54.123Z,5.98
2019-03-18T01:44:04.557Z,5.77
2019-03-18T01:49:11.832Z,5.76
2019-03-18T01:54:18.231Z,6.01
2019-03-18T01:59:32.959Z,5.90
2019-03-18T02:04:39.103Z,5.83
2019-03-18T02:09:46.093Z,5.83
2019-03-18T02:14:53.004Z,5.81
2019-03-18T02:20:03.781Z,5.71
2019-03-18T02:25:15.362Z,5.79
2019-03-18T02:30:22.421Z,5.57
2019-03-18T02:35:29.240Z,5.72
2019-03-18T02:40:37.326Z,5.65
2019-03-18T02:45:43.835Z,5.48
2019-03-18T02:50:54.658Z,5.48
2019-03-18T02:56:01.515Z,5.63
2019-03-18T03:01:12.081Z,5.40
2019-03-18T03:06:18.225Z,5.58
2019-03-18T03:11:27.644Z,5.61
2019-03-18T03:16:37.924Z,5.72
2019-03-18T03:21:45.649Z,5.58
2019-03-18T03:26:52.546Z,5.39
2019-03-18T03:31:59.918Z,5.52
2019-03-18T03:37:09.333Z,5.33
2019-03-18T03:42:19.388Z,5.26
2019-03-18T03:47:27.017Z,5.49
2019-03-18T03:52:35.906Z,5.36
2019-03-18T03:57:42.270Z,5.40
2019-03-18T04:02:49.913Z,5.11
2019-03-18T04:07:59.821Z,5.16
2019-03-18T04:13:09.168Z,5.05
2019-03-18T04:18:18.319Z,4.88
2019-03-18T04:23:25.900Z,4.88
2019-03-18T04:28:34.509Z,4.87
2019-03-18T04:33:41.672Z,4.66
2019-03-18T04:38:48.230Z,4.86
2019-03-18T04:43:54.911Z,4.53
2019-03-18T04:49:05.141Z,4.51
2019-03-18T04:54:12.672Z,4.27
2019-03-18T04:59:20.220Z,4.39
2019-03-18T05:04:26.615Z,4.39
2019-03-18T05:09:33.549Z,4.19
2019-03-18T05:14:44.266Z,4.20
2019-03-18T05:19:52.332Z,4.13
2019-03-18T05:24:59.637Z,4.13
2019-03-18T05:30:09.623Z,4.16
2019-03-18T05:35:16.919Z,4.16
2019-03-18T05:40:23.836Z,4.04
2019-03-18T05:45:31.716Z,4.06
2019-03-18T05:50:38.918Z,4.29
2019-03-18T05:55:44.933Z,4.19
2019-03-18T06:00:52.858Z,4.26
2019-03-18T06:06:05.024Z,4.45
2019-03-18T06:11:17.929Z,4.52
2019-03-18T06:16:25.701Z,4.56
2019-03-18T06:21:33.845Z,4.53
2019-03-18T06:26:41.015Z,4.57
2019-03-18T06:31:47.959Z,4.78
2019-03-18T06:36:57.323Z,5.03
2019-03-18T06:42:08.128Z,4.99
2019-03-18T06:47:14.781Z,5.32
2019-03-18T06:52:21.700Z,5.32
2019-03-18T06:57:29.257Z,5.38
2019-03-18T07:02:36.240Z,5.14
2019-03-18T07:07:43.168Z,5.21
2019-03-18T07:12:50.419Z,5.45
2019-03-18T07:17:58.238Z,6.14
2019-03-18T07:23:09.112Z,5.96
2019-03-18T07:28:18.107Z,5.87
2019-03-18T07:33:25.218Z,6.27
2019-03-18T07:38:32.143Z,6.37
2019-03-18T07:43:39.462Z,6.37
2019-03-18T07:48:46.758Z,6.30
2019-03-18T07:53:53.710Z,6.77
2019-03-18T07:58:59.988Z,7.49
2019-03-18T08:04:08.236Z,7.52
2019-03-18T08:09:15.440Z,7.63
2019-03-18T09:04:10.455Z,9.38
2019-03-18T09:09:19.346Z,9.30
2019-03-18T09:14:26.378Z,9.20
2019-03-18T09:19:34.941Z,9.90
2019-03-18T09:24:44.024Z,10.34
2019-03-18T09:29:59.052Z,9.15
2019-03-18T09:35:10.021Z,8.49
2019-03-18T09:40:25.768Z,7.46
2019-03-18T09:45:33.717Z,8.19
2019-03-18T09:50:43.067Z,7.87
2019-03-18T09:55:50.236Z,7.61
2019-03-18T10:00:56.319Z,7.90
2019-03-18T10:06:07.980Z,7.61
2019-03-18T10:11:18.931Z,7.49
2019-03-18T10:16:35.375Z,7.68
2019-03-18T10:21:47.383Z,7.95
2019-03-18T10:26:52.976Z,7.88
2019-03-18T10:32:02.200Z,7.87
2019-03-18T10:37:10.691Z,7.80
2019-03-18T10:42:19.920Z,7.74
2019-03-18T10:47:33.901Z,8.45
2019-03-18T10:52:41.323Z,8.97
2019-03-18T10:57:51.033Z,10.02
2019-03-18T11:03:05.096Z,9.39
2019-03-18T11:08:09.882Z,8.90
2019-03-18T11:13:23.155Z,8.41
2019-03-18T11:18:32.368Z,8.28
2019-03-18T11:23:42.556Z,8.36
2019-03-18T11:28:48.801Z,8.51
2019-03-18T11:34:05.271Z,9.05
2019-03-18T11:39:10.790Z,9.08
2019-03-18T11:44:21.388Z,8.73
2019-03-18T11:49:39.574Z,8.48
2019-03-18T11:54:40.880Z,8.57
2019-03-18T11:59:49.168Z,8.66
2019-03-18T12:04:57.548Z,9.54
2019-03-18T12:10:04.963Z,9.66
2019-03-18T12:15:15.781Z,9.47
2019-03-18T12:20:25.507Z,8.82
2019-03-18T12:25:33.558Z,8.75
2019-03-18T12:30:40.645Z,8.10
2019-03-18T12:35:47.646Z,7.67
2019-03-18T12:40:54.196Z,7.71
2019-03-18T12:46:04.195Z,7.76
2019-03-18T12:51:11.604Z,8.57
2019-03-18T12:56:18.959Z,8.90
2019-03-18T13:01:25.725Z,9.62
2019-03-18T13:06:35.439Z,9.12
2019-03-18T13:11:42.688Z,9.24
2019-03-18T13:16:48.792Z,9.34
2019-03-18T13:22:00.177Z,9.81
2019-03-18T13:27:08.927Z,9.44
2019-03-18T13:32:16.391Z,8.25
2019-03-18T13:37:30.468Z,7.02
2019-03-18T13:42:34.819Z,6.15
2019-03-18T13:47:47.991Z,6.88
2019-03-18T13:52:52.148Z,7.30
2019-03-18T13:57:58.548Z,7.34
2019-03-18T14:03:07.688Z,6.63
2019-03-18T14:08:14.905Z,6.88
2019-03-18T14:13:25.557Z,7.38
2019-03-18T14:18:32.480Z,7.84
2019-03-18T14:23:43.818Z,7.90
2019-03-18T14:28:52.653Z,7.74
2019-03-18T14:34:00.077Z,7.21
2019-03-18T14:39:08.642Z,6.52
2019-03-18T14:44:21.040Z,6.27
2019-03-18T14:49:29.553Z,5.53
2019-03-18T14:54:37.182Z,5.99
2019-03-18T14:59:47.346Z,6.73
2019-03-18T15:04:54.032Z,6.81
2019-03-18T15:10:00.447Z,6.87
2019-03-18T15:15:11.528Z,6.96
2019-03-18T15:20:23.914Z,6.80
2019-03-18T15:25:43.151Z,7.46
2019-03-18T15:30:56.126Z,7.24
2019-03-18T15:36:09.931Z,7.38
2019-03-18T15:41:26.521Z,7.80
2019-03-18T15:46:29.911Z,7.54
2019-03-18T15:51:40.983Z,7.87
2019-03-18T15:56:48.637Z,7.97
2019-03-18T16:01:56.344Z,7.85
2019-03-18T16:07:13.624Z,7.68
2019-03-18T16:12:23.448Z,7.58
2019-03-18T16:17:31.593Z,7.49
2019-03-18T16:22:39.776Z,7.44
2019-03-18T16:27:46.781Z,7.42
2019-03-18T16:33:05.979Z,7.48
2019-03-18T16:38:12.027Z,7.52
2019-03-18T16:43:20.049Z,7.42
2019-03-18T16:48:28.917Z,7.56
2019-03-18T16:53:39.269Z,7.15
2019-03-18T16:58:48.102Z,7.17
2019-03-18T17:03:58.211Z,7.51
2019-03-18T17:09:09.282Z,7.34
2019-03-18T17:14:26.122Z,7.23
2019-03-18T17:19:36.011Z,6.96
2019-03-18T17:24:44.534Z,6.98
2019-03-18T17:29:52.042Z,6.91
2019-03-18T17:35:01.542Z,6.93
2019-03-18T17:40:18.275Z,6.95
2019-03-18T17:45:24.937Z,6.76
2019-03-18T17:50:32.157Z,6.38
2019-03-18T17:55:46.341Z,6.32
2019-03-18T18:01:10.581Z,6.31
2019-03-18T18:06:19.624Z,6.20
2019-03-18T18:11:26.242Z,5.90
2019-03-18T18:21:49.134Z,5.92
2019-03-18T18:26:57.287Z,5.62
2019-03-18T18:32:05.604Z,5.65
2019-03-18T18:37:18.713Z,5.62
2019-03-18T18:42:26.421Z,5.57
2019-03-18T18:47:34.373Z,5.44
2019-03-18T18:52:48.746Z,5.38
2019-03-18T18:58:06.857Z,5.38
2019-03-18T19:03:17.697Z,5.33
2019-03-18T19:08:30.994Z,5.25
2019-03-18T19:13:37.698Z,5.23
2019-03-18T19:18:52.023Z,5.36
2019-03-18T19:24:00.972Z,5.23
2019-03-18T19:29:09.452Z,5.22
2019-03-18T19:34:22.582Z,5.22
2019-03-18T19:39:35.223Z,5.06
2019-03-18T19:44:45.591Z,5.26
2019-03-18T19:49:59.983Z,5.10
2019-03-18T20:01:24.262Z,4.93
2019-03-18T20:06:32.350Z,5.07
2019-03-18T20:11:44.914Z,5.21
2019-03-18T20:16:57.781Z,5.25
2019-03-18T20:22:04.281Z,5.27
2019-03-18T20:27:13.879Z,5.00
2019-03-18T20:32:24.104Z,5.02
2019-03-18T20:37:36.909Z,5.05
2019-03-18T20:42:45.167Z,5.05
2019-03-18T20:47:53.131Z,5.18
2019-03-18T20:53:03.920Z,5.18
2019-03-18T20:58:13.165Z,5.05
2019-03-18T21:03:20.457Z,5.22
2019-03-18T21:08:32.146Z,4.97
2019-03-18T21:13:44.924Z,4.97
2019-03-18T21:18:56.064Z,5.10
2019-03-18T21:24:03.962Z,5.31
2019-03-18T21:29:10.520Z,5.20
2019-03-18T21:34:16.699Z,5.31
2019-03-18T21:39:25.680Z,5.14
2019-03-18T21:44:34.835Z,5.31
2019-03-18T21:49:51.631Z,5.31
2019-03-18T21:55:25.721Z,5.31
2019-03-18T22:00:33.277Z,5.13
2019-03-18T22:05:40.532Z,5.23
2019-03-18T22:10:52.663Z,5.31
2019-03-18T22:16:02.852Z,5.63
2019-03-18T22:21:09.930Z,5.35
2019-03-18T22:26:19.791Z,5.35
2019-03-18T22:31:27.846Z,5.19
2019-03-18T22:36:36.095Z,5.10
2019-03-18T22:41:45.252Z,5.17
2019-03-18T22:46:52.615Z,5.07
2019-03-18T22:51:59.094Z,4.88
2019-03-18T22:57:05.274Z,5.09
2019-03-18T23:02:13.354Z,5.16
2019-03-18T23:07:19.484Z,4.92
2019-03-18T23:12:28.335Z,4.97
2019-03-18T23:17:38.941Z,5.06
2019-03-18T23:22:46.331Z,4.96
2019-03-18T23:27:53.380Z,5.12
2019-03-18T23:33:00.150Z,5.25
2019-03-18T23:38:07.244Z,5.05
2019-03-18T23:43:15.186Z,5.05
2019-03-18T23:48:47.409Z,5.01
2019-03-18T23:53:57.561Z,5.06
2019-03-18T23:59:08.313Z,5.06
